sensor_id;sensor_type;location;lat;lon;timestamp;P1;durP1;ratioP1;P2;durP2;ratioP2
16139;SDS011;8175;49.326;12.690;2023-07-20T04:06:13;5.20;;;3.80;;
16139;SDS011;8175;49.326;12.690;2023-07-20T04:08:39;5.00;;;3.73;;
16139;SDS011;8175;49.326;12.690;2023-07-20T04:11:05;4.07;;;3.73;;
16139;SDS011;8175;49.326;12.690;2023-07-20T04:13:30;4.23;;;3.50;;
16139;SDS011;8175;49.326;12.690;2023-07-20T04:15:59;3.80;;;3.50;;
16139;SDS011;8175;49.326;12.690;2023-07-20T04:23:09;5.57;;;3.37;;
16139;SDS011;8175;49.326;12.690;2023-07-20T04:25:35;4.20;;;3.80;;
16139;SDS011;8175;49.326;12.690;2023-07-20T04:57:37;6.90;;;4.37;;
16139;SDS011;8175;49.326;12.690;2023-07-20T05:00:03;5.63;;;4.00;;
16139;SDS011;8175;49.326;12.690;2023-07-20T05:02:29;5.03;;;3.70;;
16139;SDS011;8175;49.326;12.690;2023-07-20T05:04:55;4.13;;;3.53;;
16139;SDS011;8175;49.326;12.690;2023-07-20T05:07:21;7.37;;;3.90;;
16139;SDS011;8175;49.326;12.690;2023-07-20T05:09:46;4.20;;;3.63;;
16139;SDS011;8175;49.326;12.690;2023-07-20T05:12:12;4.73;;;3.97;;
16139;SDS011;8175;49.326;12.690;2023-07-20T05:14:38;3.63;;;3.27;;
16139;SDS011;8175;49.326;12.690;2023-07-20T05:17:03;4.07;;;3.70;;
16139;SDS011;8175;49.326;12.690;2023-07-20T05:19:29;3.93;;;3.53;;
16139;SDS011;8175;49.326;12.690;2023-07-20T05:21:55;5.80;;;4.20;;
16139;SDS011;8175;49.326;12.690;2023-07-20T05:24:21;4.37;;;3.87;;
16139;SDS011;8175;49.326;12.690;2023-07-20T05:26:47;4.20;;;3.73;;
16139;SDS011;8175;49.326;12.690;2023-07-20T05:29:13;3.60;;;3.30;;
16139;SDS011;8175;49.326;12.690;2023-07-20T05:31:39;4.63;;;3.80;;
16139;SDS011;8175;49.326;12.690;2023-07-20T05:34:04;5.30;;;3.60;;
16139;SDS011;8175;49.326;12.690;2023-07-20T05:36:30;5.20;;;4.50;;
16139;SDS011;8175;49.326;12.690;2023-07-20T05:38:56;4.20;;;3.80;;
16139;SDS011;8175;49.326;12.690;2023-07-20T05:41:21;5.00;;;3.97;;
16139;SDS011;8175;49.326;12.690;2023-07-20T05:43:47;4.30;;;3.87;;
16139;SDS011;8175;49.326;12.690;2023-07-20T05:46:13;4.63;;;3.90;;
16139;SDS011;8175;49.326;12.690;2023-07-20T05:48:39;4.27;;;3.87;;
16139;SDS011;8175;49.326;12.690;2023-07-20T05:51:05;4.13;;;3.67;;
16139;SDS011;8175;49.326;12.690;2023-07-20T05:53:30;5.67;;;4.57;;
16139;SDS011;8175;49.326;12.690;2023-07-20T05:55:56;6.00;;;3.97;;
16139;SDS011;8175;49.326;12.690;2023-07-20T05:58:22;4.37;;;3.97;;
16139;SDS011;8175;49.326;12.690;2023-07-20T06:00:48;4.93;;;4.13;;
16139;SDS011;8175;49.326;12.690;2023-07-20T06:03:14;4.97;;;4.47;;
16139;SDS011;8175;49.326;12.690;2023-07-20T06:05:41;5.07;;;4.57;;
16139;SDS011;8175;49.326;12.690;2023-07-20T06:08:07;4.50;;;4.10;;
16139;SDS011;8175;49.326;12.690;2023-07-20T06:10:33;6.27;;;4.40;;
16139;SDS011;8175;49.326;12.690;2023-07-20T06:12:59;5.93;;;4.10;;
16139;SDS011;8175;49.326;12.690;2023-07-20T06:15:25;5.60;;;4.90;;
16139;SDS011;8175;49.326;12.690;2023-07-20T06:17:57;5.10;;;4.37;;
16139;SDS011;8175;49.326;12.690;2023-07-20T06:20:23;4.83;;;4.33;;
16139;SDS011;8175;49.326;12.690;2023-07-20T06:22:49;5.57;;;4.77;;
16139;SDS011;8175;49.326;12.690;2023-07-20T06:25:15;6.23;;;4.87;;
16139;SDS011;8175;49.326;12.690;2023-07-20T06:27:41;6.53;;;4.80;;
16139;SDS011;8175;49.326;12.690;2023-07-20T06:30:07;6.93;;;4.97;;
16139;SDS011;8175;49.326;12.690;2023-07-20T06:32:33;5.97;;;5.37;;
16139;SDS011;8175;49.326;12.690;2023-07-20T06:34:59;5.93;;;5.33;;
16139;SDS011;8175;49.326;12.690;2023-07-20T06:37:24;6.20;;;4.97;;
16139;SDS011;8175;49.326;12.690;2023-07-20T06:39:51;6.10;;;5.00;;
16139;SDS011;8175;49.326;12.690;2023-07-20T06:42:16;6.57;;;5.23;;
16139;SDS011;8175;49.326;12.690;2023-07-20T06:44:42;6.97;;;5.50;;
16139;SDS011;8175;49.326;12.690;2023-07-20T06:47:07;7.83;;;4.97;;
16139;SDS011;8175;49.326;12.690;2023-07-20T06:49:33;6.47;;;5.20;;
16139;SDS011;8175;49.326;12.690;2023-07-20T06:51:59;6.47;;;5.30;;
16139;SDS011;8175;49.326;12.690;2023-07-20T06:54:24;5.50;;;4.77;;
16139;SDS011;8175;49.326;12.690;2023-07-20T06:56:50;7.93;;;5.23;;
16139;SDS011;8175;49.326;12.690;2023-07-20T06:59:16;6.20;;;5.10;;
16139;SDS011;8175;49.326;12.690;2023-07-20T07:01:42;6.33;;;4.90;;
16139;SDS011;8175;49.326;12.690;2023-07-20T07:04:07;6.33;;;4.70;;
16139;SDS011;8175;49.326;12.690;2023-07-20T07:06:33;5.33;;;4.83;;
16139;SDS011;8175;49.326;12.690;2023-07-20T07:08:59;5.33;;;4.37;;
16139;SDS011;8175;49.326;12.690;2023-07-20T07:11:25;4.63;;;4.23;;
16139;SDS011;8175;49.326;12.690;2023-07-20T07:13:50;4.53;;;4.10;;
16139;SDS011;8175;49.326;12.690;2023-07-20T07:16:16;4.90;;;3.80;;
16139;SDS011;8175;49.326;12.690;2023-07-20T07:18:47;5.10;;;3.40;;
16139;SDS011;8175;49.326;12.690;2023-07-20T07:21:15;5.63;;;3.63;;
16139;SDS011;8175;49.326;12.690;2023-07-20T07:23:40;5.43;;;3.00;;
16139;SDS011;8175;49.326;12.690;2023-07-20T07:26:06;6.50;;;3.17;;
16139;SDS011;8175;49.326;12.690;2023-07-20T07:28:32;3.47;;;3.17;;
16139;SDS011;8175;49.326;12.690;2023-07-20T07:30:58;4.63;;;3.60;;
16139;SDS011;8175;49.326;12.690;2023-07-20T07:33:23;3.90;;;3.50;;
16139;SDS011;8175;49.326;12.690;2023-07-20T07:35:52;3.60;;;2.90;;
16139;SDS011;8175;49.326;12.690;2023-07-20T07:38:18;3.67;;;3.30;;
16139;SDS011;8175;49.326;12.690;2023-07-20T07:40:44;3.37;;;3.03;;
16139;SDS011;8175;49.326;12.690;2023-07-20T07:43:10;3.60;;;3.05;;
16139;SDS011;8175;49.326;12.690;2023-07-20T07:45:37;3.90;;;3.50;;
16139;SDS011;8175;49.326;12.690;2023-07-20T07:48:03;5.40;;;3.50;;
16139;SDS011;8175;49.326;12.690;2023-07-20T07:50:29;3.13;;;2.92;;
16139;SDS011;8175;49.326;12.690;2023-07-20T07:52:55;3.67;;;3.17;;
16139;SDS011;8175;49.326;12.690;2023-07-20T07:55:20;3.58;;;3.15;;
16139;SDS011;8175;49.326;12.690;2023-07-20T07:57:46;4.07;;;3.70;;
16139;SDS011;8175;49.326;12.690;2023-07-20T08:00:12;4.88;;;2.95;;
16139;SDS011;8175;49.326;12.690;2023-07-20T08:02:42;3.35;;;2.80;;
16139;SDS011;8175;49.326;12.690;2023-07-20T08:05:08;3.55;;;2.65;;
16139;SDS011;8175;49.326;12.690;2023-07-20T08:07:35;2.30;;;2.10;;
16139;SDS011;8175;49.326;12.690;2023-07-20T08:10:01;3.58;;;3.03;;
16139;SDS011;8175;49.326;12.690;2023-07-20T08:12:27;2.70;;;2.50;;
16139;SDS011;8175;49.326;12.690;2023-07-20T08:14:53;3.20;;;2.90;;
16139;SDS011;8175;49.326;12.690;2023-07-20T08:17:18;2.80;;;2.40;;
16139;SDS011;8175;49.326;12.690;2023-07-20T08:19:45;6.10;;;3.45;;
16139;SDS011;8175;49.326;12.690;2023-07-20T08:22:11;4.47;;;3.15;;
16139;SDS011;8175;49.326;12.690;2023-07-20T08:24:40;3.35;;;3.05;;
16139;SDS011;8175;49.326;12.690;2023-07-20T08:27:07;4.13;;;2.45;;
16139;SDS011;8175;49.326;12.690;2023-07-20T08:29:33;2.60;;;2.40;;
16139;SDS011;8175;49.326;12.690;2023-07-20T08:31:59;2.80;;;2.60;;
16139;SDS011;8175;49.326;12.690;2023-07-20T08:34:25;3.80;;;2.40;;
16139;SDS011;8175;49.326;12.690;2023-07-20T08:36:50;3.55;;;2.42;;
16139;SDS011;8175;49.326;12.690;2023-07-20T08:39:16;2.70;;;2.33;;
16139;SDS011;8175;49.326;12.690;2023-07-20T08:41:42;2.72;;;2.50;;
16139;SDS011;8175;49.326;12.690;2023-07-20T08:44:08;4.25;;;2.35;;
16139;SDS011;8175;49.326;12.690;2023-07-20T08:46:36;3.13;;;2.63;;
16139;SDS011;8175;49.326;12.690;2023-07-20T08:49:05;2.65;;;2.17;;
16139;SDS011;8175;49.326;12.690;2023-07-20T08:51:31;2.50;;;2.30;;
16139;SDS011;8175;49.326;12.690;2023-07-20T08:53:58;2.42;;;2.22;;
16139;SDS011;8175;49.326;12.690;2023-07-20T08:56:25;2.83;;;2.10;;
16139;SDS011;8175;49.326;12.690;2023-07-20T08:58:52;2.83;;;2.10;;
16139;SDS011;8175;49.326;12.690;2023-07-20T09:01:19;2.67;;;2.47;;
16139;SDS011;8175;49.326;12.690;2023-07-20T09:03:45;3.55;;;2.10;;
16139;SDS011;8175;49.326;12.690;2023-07-20T09:06:11;2.47;;;2.03;;
16139;SDS011;8175;49.326;12.690;2023-07-20T09:08:38;2.92;;;1.95;;
16139;SDS011;8175;49.326;12.690;2023-07-20T09:11:04;2.67;;;1.92;;
16139;SDS011;8175;49.326;12.690;2023-07-20T09:13:32;3.83;;;2.00;;
16139;SDS011;8175;49.326;12.690;2023-07-20T09:15:58;1.90;;;1.70;;
16139;SDS011;8175;49.326;12.690;2023-07-20T09:18:28;2.30;;;2.10;;
16139;SDS011;8175;49.326;12.690;2023-07-20T09:21:01;1.95;;;1.85;;
16139;SDS011;8175;49.326;12.690;2023-07-20T09:23:31;2.00;;;1.73;;
16139;SDS011;8175;49.326;12.690;2023-07-20T09:25:58;1.98;;;1.50;;
16139;SDS011;8175;49.326;12.690;2023-07-20T09:28:24;2.45;;;1.80;;
16139;SDS011;8175;49.326;12.690;2023-07-20T09:30:50;3.50;;;2.08;;
16139;SDS011;8175;49.326;12.690;2023-07-20T09:33:21;2.67;;;2.00;;
16139;SDS011;8175;49.326;12.690;2023-07-20T09:35:47;2.95;;;1.70;;
16139;SDS011;8175;49.326;12.690;2023-07-20T09:38:13;2.13;;;1.92;;
16139;SDS011;8175;49.326;12.690;2023-07-20T09:40:39;2.45;;;2.17;;
16139;SDS011;8175;49.326;12.690;2023-07-20T09:43:09;3.13;;;1.67;;
16139;SDS011;8175;49.326;12.690;2023-07-20T09:45:35;2.25;;;1.85;;
16139;SDS011;8175;49.326;12.690;2023-07-20T09:48:07;2.55;;;1.83;;
16139;SDS011;8175;49.326;12.690;2023-07-20T09:50:39;2.00;;;1.80;;
16139;SDS011;8175;49.326;12.690;2023-07-20T09:53:12;2.97;;;1.83;;
16139;SDS011;8175;49.326;12.690;2023-07-20T09:55:40;2.35;;;1.92;;
16139;SDS011;8175;49.326;12.690;2023-07-20T09:58:08;3.55;;;2.15;;
16139;SDS011;8175;49.326;12.690;2023-07-20T10:00:35;2.08;;;1.88;;
16139;SDS011;8175;49.326;12.690;2023-07-20T10:03:03;2.70;;;1.80;;
16139;SDS011;8175;49.326;12.690;2023-07-20T10:05:33;1.90;;;1.70;;
16139;SDS011;8175;49.326;12.690;2023-07-20T10:08:03;1.83;;;1.73;;
16139;SDS011;8175;49.326;12.690;2023-07-20T10:10:30;2.00;;;1.80;;
16139;SDS011;8175;49.326;12.690;2023-07-20T10:12:59;3.20;;;1.80;;
16139;SDS011;8175;49.326;12.690;2023-07-20T10:15:40;1.77;;;1.60;;
16139;SDS011;8175;49.326;12.690;2023-07-20T10:18:17;1.60;;;1.50;;
16139;SDS011;8175;49.326;12.690;2023-07-20T10:20:48;4.32;;;1.70;;
16139;SDS011;8175;49.326;12.690;2023-07-20T10:23:16;1.73;;;1.60;;
16139;SDS011;8175;49.326;12.690;2023-07-20T10:25:42;3.38;;;1.92;;
16139;SDS011;8175;49.326;12.690;2023-07-20T10:28:08;2.05;;;1.70;;
16139;SDS011;8175;49.326;12.690;2023-07-20T10:30:36;1.90;;;1.55;;
16139;SDS011;8175;49.326;12.690;2023-07-20T10:33:02;1.58;;;1.48;;
16139;SDS011;8175;49.326;12.690;2023-07-20T10:35:29;1.55;;;1.45;;
16139;SDS011;8175;49.326;12.690;2023-07-20T10:38:02;2.00;;;1.60;;
16139;SDS011;8175;49.326;12.690;2023-07-20T10:40:29;1.92;;;1.70;;
16139;SDS011;8175;49.326;12.690;2023-07-20T10:43:05;1.98;;;1.60;;
16139;SDS011;8175;49.326;12.690;2023-07-20T10:45:36;1.88;;;1.45;;
16139;SDS011;8175;49.326;12.690;2023-07-20T10:48:12;1.80;;;1.55;;
16139;SDS011;8175;49.326;12.690;2023-07-20T10:50:42;3.10;;;1.70;;
16139;SDS011;8175;49.326;12.690;2023-07-20T10:53:12;2.47;;;1.70;;
16139;SDS011;8175;49.326;12.690;2023-07-20T10:55:40;2.47;;;1.45;;
16139;SDS011;8175;49.326;12.690;2023-07-20T10:58:13;1.98;;;1.77;;
16139;SDS011;8175;49.326;12.690;2023-07-20T11:00:55;1.60;;;1.50;;
16139;SDS011;8175;49.326;12.690;2023-07-20T11:03:31;1.60;;;1.50;;
16139;SDS011;8175;49.326;12.690;2023-07-20T11:05:59;1.80;;;1.40;;
16139;SDS011;8175;49.326;12.690;2023-07-20T11:08:40;2.80;;;1.70;;
16139;SDS011;8175;49.326;12.690;2023-07-20T11:14:01;2.63;;;1.67;;
16139;SDS011;8175;49.326;12.690;2023-07-20T11:16:41;1.48;;;1.38;;
16139;SDS011;8175;49.326;12.690;2023-07-20T11:19:24;3.28;;;2.22;;
16139;SDS011;8175;49.326;12.690;2023-07-20T11:21:54;1.60;;;1.50;;
16139;SDS011;8175;49.326;12.690;2023-07-20T11:24:21;1.92;;;1.75;;
16139;SDS011;8175;49.326;12.690;2023-07-20T11:26:48;2.15;;;1.75;;
16139;SDS011;8175;49.326;12.690;2023-07-20T11:29:20;2.25;;;1.90;;
16139;SDS011;8175;49.326;12.690;2023-07-20T11:31:48;1.80;;;1.50;;
16139;SDS011;8175;49.326;12.690;2023-07-20T11:34:15;2.13;;;1.63;;
16139;SDS011;8175;49.326;12.690;2023-07-20T11:36:43;2.15;;;1.95;;
16139;SDS011;8175;49.326;12.690;2023-07-20T11:39:10;1.75;;;1.50;;
16139;SDS011;8175;49.326;12.690;2023-07-20T11:41:37;1.40;;;1.30;;
16139;SDS011;8175;49.326;12.690;2023-07-20T11:44:04;1.75;;;1.65;;
16139;SDS011;8175;49.326;12.690;2023-07-20T11:46:31;2.50;;;1.15;;
16139;SDS011;8175;49.326;12.690;2023-07-20T11:49:00;2.92;;;1.40;;
16139;SDS011;8175;49.326;12.690;2023-07-20T11:51:26;2.58;;;1.73;;
16139;SDS011;8175;49.326;12.690;2023-07-20T11:53:54;3.17;;;1.25;;
16139;SDS011;8175;49.326;12.690;2023-07-20T11:56:20;1.58;;;1.48;;
16139;SDS011;8175;49.326;12.690;2023-07-20T11:58:47;2.28;;;1.48;;
16139;SDS011;8175;49.326;12.690;2023-07-20T12:01:13;2.33;;;1.30;;
16139;SDS011;8175;49.326;12.690;2023-07-20T12:03:39;1.85;;;1.50;;
16139;SDS011;8175;49.326;12.690;2023-07-20T12:06:10;2.25;;;1.90;;
16139;SDS011;8175;49.326;12.690;2023-07-20T12:08:39;2.47;;;1.63;;
16139;SDS011;8175;49.326;12.690;2023-07-20T12:11:06;1.27;;;1.20;;
16139;SDS011;8175;49.326;12.690;2023-07-20T12:13:43;1.67;;;1.20;;
16139;SDS011;8175;49.326;12.690;2023-07-20T12:16:15;2.25;;;1.60;;
16139;SDS011;8175;49.326;12.690;2023-07-20T12:18:42;1.73;;;1.60;;
16139;SDS011;8175;49.326;12.690;2023-07-20T12:21:08;1.65;;;1.35;;
16139;SDS011;8175;49.326;12.690;2023-07-20T12:23:39;2.05;;;1.48;;
16139;SDS011;8175;49.326;12.690;2023-07-20T12:26:06;2.50;;;1.30;;
16139;SDS011;8175;49.326;12.690;2023-07-20T12:28:35;3.00;;;1.40;;
16139;SDS011;8175;49.326;12.690;2023-07-20T12:31:05;1.35;;;1.25;;
16139;SDS011;8175;49.326;12.690;2023-07-20T12:33:31;1.42;;;1.33;;
16139;SDS011;8175;49.326;12.690;2023-07-20T12:35:57;2.00;;;1.23;;
16139;SDS011;8175;49.326;12.690;2023-07-20T12:38:24;2.13;;;1.55;;
16139;SDS011;8175;49.326;12.690;2023-07-20T12:40:50;1.63;;;1.23;;
16139;SDS011;8175;49.326;12.690;2023-07-20T12:43:16;1.75;;;1.40;;
16139;SDS011;8175;49.326;12.690;2023-07-20T12:45:42;1.92;;;1.65;;
16139;SDS011;8175;49.326;12.690;2023-07-20T12:48:08;4.68;;;1.42;;
16139;SDS011;8175;49.326;12.690;2023-07-20T12:50:34;2.65;;;1.50;;
16139;SDS011;8175;49.326;12.690;2023-07-20T12:52:59;2.67;;;1.50;;
16139;SDS011;8175;49.326;12.690;2023-07-20T12:55:25;2.20;;;1.52;;
16139;SDS011;8175;49.326;12.690;2023-07-20T12:57:50;2.22;;;1.67;;
16139;SDS011;8175;49.326;12.690;2023-07-20T13:00:17;1.92;;;1.48;;
16139;SDS011;8175;49.326;12.690;2023-07-20T13:02:43;2.70;;;1.50;;
16139;SDS011;8175;49.326;12.690;2023-07-20T13:05:09;2.25;;;1.33;;
16139;SDS011;8175;49.326;12.690;2023-07-20T13:07:36;2.80;;;1.40;;
16139;SDS011;8175;49.326;12.690;2023-07-20T13:10:03;1.48;;;1.38;;
16139;SDS011;8175;49.326;12.690;2023-07-20T13:12:29;1.75;;;1.40;;
16139;SDS011;8175;49.326;12.690;2023-07-20T13:14:56;4.07;;;1.58;;
16139;SDS011;8175;49.326;12.690;2023-07-20T13:17:25;1.55;;;1.30;;
16139;SDS011;8175;49.326;12.690;2023-07-20T13:19:50;3.25;;;1.48;;
16139;SDS011;8175;49.326;12.690;2023-07-20T13:22:16;1.30;;;1.20;;
16139;SDS011;8175;49.326;12.690;2023-07-20T13:24:43;2.47;;;1.60;;
16139;SDS011;8175;49.326;12.690;2023-07-20T13:27:10;1.88;;;1.25;;
16139;SDS011;8175;49.326;12.690;2023-07-20T13:29:36;1.88;;;1.67;;
16139;SDS011;8175;49.326;12.690;2023-07-20T13:32:02;1.73;;;1.35;;
16139;SDS011;8175;49.326;12.690;2023-07-20T13:34:30;3.60;;;1.48;;
16139;SDS011;8175;49.326;12.690;2023-07-20T13:36:55;2.55;;;1.52;;
16139;SDS011;8175;49.326;12.690;2023-07-20T13:39:21;2.58;;;1.30;;
16139;SDS011;8175;49.326;12.690;2023-07-20T13:41:49;1.88;;;1.48;;
16139;SDS011;8175;49.326;12.690;2023-07-20T13:44:15;2.67;;;1.40;;
16139;SDS011;8175;49.326;12.690;2023-07-20T13:46:40;2.88;;;1.50;;
16139;SDS011;8175;49.326;12.690;2023-07-20T13:49:06;1.35;;;1.25;;
16139;SDS011;8175;49.326;12.690;2023-07-20T13:51:32;2.88;;;1.35;;
16139;SDS011;8175;49.326;12.690;2023-07-20T13:53:57;1.83;;;1.50;;
16139;SDS011;8175;49.326;12.690;2023-07-20T13:56:23;1.92;;;1.13;;
16139;SDS011;8175;49.326;12.690;2023-07-20T13:58:49;1.88;;;1.50;;
16139;SDS011;8175;49.326;12.690;2023-07-20T14:01:15;1.35;;;1.25;;
16139;SDS011;8175;49.326;12.690;2023-07-20T14:03:42;2.22;;;1.48;;
16139;SDS011;8175;49.326;12.690;2023-07-20T14:06:08;1.33;;;1.23;;
16139;SDS011;8175;49.326;12.690;2023-07-20T14:08:34;1.80;;;1.50;;
16139;SDS011;8175;49.326;12.690;2023-07-20T14:11:00;1.75;;;1.38;;
16139;SDS011;8175;49.326;12.690;2023-07-20T14:13:26;1.30;;;1.20;;
16139;SDS011;8175;49.326;12.690;2023-07-20T14:15:52;3.20;;;1.40;;
16139;SDS011;8175;49.326;12.690;2023-07-20T14:18:17;1.25;;;1.15;;
16139;SDS011;8175;49.326;12.690;2023-07-20T14:20:43;1.58;;;1.27;;
16139;SDS011;8175;49.326;12.690;2023-07-20T14:23:09;1.83;;;1.13;;
16139;SDS011;8175;49.326;12.690;2023-07-20T14:25:35;1.40;;;1.30;;
16139;SDS011;8175;49.326;12.690;2023-07-20T14:28:00;1.30;;;1.20;;
16139;SDS011;8175;49.326;12.690;2023-07-20T14:30:26;2.05;;;1.00;;
16139;SDS011;8175;49.326;12.690;2023-07-20T14:32:52;2.28;;;1.23;;
16139;SDS011;8175;49.326;12.690;2023-07-20T14:35:18;1.75;;;1.30;;
16139;SDS011;8175;49.326;12.690;2023-07-20T14:37:43;1.58;;;1.33;;
16139;SDS011;8175;49.326;12.690;2023-07-20T14:40:12;1.17;;;1.08;;
16139;SDS011;8175;49.326;12.690;2023-07-20T14:42:38;2.08;;;1.40;;
16139;SDS011;8175;49.326;12.690;2023-07-20T14:45:04;1.27;;;1.10;;
16139;SDS011;8175;49.326;12.690;2023-07-20T14:47:30;0.95;;;0.95;;
16139;SDS011;8175;49.326;12.690;2023-07-20T14:50:03;1.50;;;1.17;;
16139;SDS011;8175;49.326;12.690;2023-07-20T14:52:29;2.65;;;1.30;;
16139;SDS011;8175;49.326;12.690;2023-07-20T14:54:55;1.35;;;1.20;;
16139;SDS011;8175;49.326;12.690;2023-07-20T14:57:21;1.20;;;1.10;;
16139;SDS011;8175;49.326;12.690;2023-07-20T14:59:48;1.25;;;1.10;;
16139;SDS011;8175;49.326;12.690;2023-07-20T15:02:15;1.27;;;1.17;;
16139;SDS011;8175;49.326;12.690;2023-07-20T15:04:47;1.92;;;1.10;;
16139;SDS011;8175;49.326;12.690;2023-07-20T15:07:17;1.45;;;1.10;;
16139;SDS011;8175;49.326;12.690;2023-07-20T15:09:45;1.65;;;1.00;;
16139;SDS011;8175;49.326;12.690;2023-07-20T15:12:10;1.77;;;1.42;;
16139;SDS011;8175;49.326;12.690;2023-07-20T15:14:39;2.65;;;1.25;;
16139;SDS011;8175;49.326;12.690;2023-07-20T15:17:06;1.30;;;1.20;;
16139;SDS011;8175;49.326;12.690;2023-07-20T15:19:32;1.27;;;1.17;;
16139;SDS011;8175;49.326;12.690;2023-07-20T15:21:59;1.40;;;1.30;;
16139;SDS011;8175;49.326;12.690;2023-07-20T15:24:25;1.42;;;1.10;;
16139;SDS011;8175;49.326;12.690;2023-07-20T15:26:50;1.60;;;1.17;;
16139;SDS011;8175;49.326;12.690;2023-07-20T15:29:16;1.38;;;0.95;;
16139;SDS011;8175;49.326;12.690;2023-07-20T15:31:42;1.10;;;1.00;;
16139;SDS011;8175;49.326;12.690;2023-07-20T15:34:07;1.00;;;1.00;;
16139;SDS011;8175;49.326;12.690;2023-07-20T15:36:33;2.15;;;1.38;;
16139;SDS011;8175;49.326;12.690;2023-07-20T15:38:59;0.90;;;0.90;;
16139;SDS011;8175;49.326;12.690;2023-07-20T15:41:24;1.52;;;1.00;;
16139;SDS011;8175;49.326;12.690;2023-07-20T15:43:50;1.13;;;1.02;;
16139;SDS011;8175;49.326;12.690;2023-07-20T15:48:58;1.05;;;1.05;;
16139;SDS011;8175;49.326;12.690;2023-07-20T15:51:23;1.10;;;1.10;;
16139;SDS011;8175;49.326;12.690;2023-07-20T15:53:49;1.27;;;0.85;;
16139;SDS011;8175;49.326;12.690;2023-07-20T15:56:15;1.45;;;0.90;;
16139;SDS011;8175;49.326;12.690;2023-07-20T15:58:40;1.08;;;0.98;;
16139;SDS011;8175;49.326;12.690;2023-07-20T16:01:06;1.80;;;0.82;;
16139;SDS011;8175;49.326;12.690;2023-07-20T16:03:32;1.55;;;1.10;;
16139;SDS011;8175;49.326;12.690;2023-07-20T16:05:58;1.83;;;0.98;;
16139;SDS011;8175;49.326;12.690;2023-07-20T16:08:24;1.38;;;1.20;;
16139;SDS011;8175;49.326;12.690;2023-07-20T16:10:51;4.72;;;1.08;;
16139;SDS011;8175;49.326;12.690;2023-07-20T16:13:17;1.45;;;1.10;;
16139;SDS011;8175;49.326;12.690;2023-07-20T16:15:43;1.38;;;1.08;;
16139;SDS011;8175;49.326;12.690;2023-07-20T16:18:09;0.90;;;0.88;;
16139;SDS011;8175;49.326;12.690;2023-07-20T16:20:34;2.15;;;1.23;;
16139;SDS011;8175;49.326;12.690;2023-07-20T16:23:00;1.30;;;1.20;;
16139;SDS011;8175;49.326;12.690;2023-07-20T16:25:28;1.08;;;0.90;;
16139;SDS011;8175;49.326;12.690;2023-07-20T16:27:54;1.10;;;1.00;;
16139;SDS011;8175;49.326;12.690;2023-07-20T16:30:20;1.35;;;1.00;;
16139;SDS011;8175;49.326;12.690;2023-07-20T16:32:45;1.27;;;0.90;;
16139;SDS011;8175;49.326;12.690;2023-07-20T16:35:11;1.10;;;1.00;;
16139;SDS011;8175;49.326;12.690;2023-07-20T16:37:36;1.33;;;1.23;;
16139;SDS011;8175;49.326;12.690;2023-07-20T16:40:05;1.35;;;1.10;;
16139;SDS011;8175;49.326;12.690;2023-07-20T16:42:34;1.25;;;1.15;;
16139;SDS011;8175;49.326;12.690;2023-07-20T16:44:59;1.60;;;1.30;;
16139;SDS011;8175;49.326;12.690;2023-07-20T16:47:25;1.77;;;1.17;;
16139;SDS011;8175;49.326;12.690;2023-07-20T16:49:51;1.35;;;1.23;;
16139;SDS011;8175;49.326;12.690;2023-07-20T16:52:16;1.30;;;1.20;;
16139;SDS011;8175;49.326;12.690;2023-07-20T16:54:42;1.98;;;1.27;;
16139;SDS011;8175;49.326;12.690;2023-07-20T16:57:08;1.23;;;1.13;;
16139;SDS011;8175;49.326;12.690;2023-07-20T16:59:34;0.90;;;0.90;;
16139;SDS011;8175;49.326;12.690;2023-07-20T17:02:00;1.25;;;1.15;;
16139;SDS011;8175;49.326;12.690;2023-07-20T17:04:26;2.08;;;1.10;;
16139;SDS011;8175;49.326;12.690;2023-07-20T17:06:52;1.27;;;1.13;;
16139;SDS011;8175;49.326;12.690;2023-07-20T17:09:18;2.03;;;1.23;;
16139;SDS011;8175;49.326;12.690;2023-07-20T17:11:43;1.42;;;1.13;;
16139;SDS011;8175;49.326;12.690;2023-07-20T17:14:09;1.52;;;1.10;;
16139;SDS011;8175;49.326;12.690;2023-07-20T17:16:38;1.83;;;1.30;;
16139;SDS011;8175;49.326;12.690;2023-07-20T17:19:03;1.27;;;1.17;;
16139;SDS011;8175;49.326;12.690;2023-07-20T17:21:29;5.15;;;1.90;;
16139;SDS011;8175;49.326;12.690;2023-07-20T17:23:56;1.30;;;1.15;;
16139;SDS011;8175;49.326;12.690;2023-07-20T17:26:22;1.45;;;1.30;;
16139;SDS011;8175;49.326;12.690;2023-07-20T17:28:48;2.03;;;1.13;;
16139;SDS011;8175;49.326;12.690;2023-07-20T17:31:14;2.38;;;1.23;;
16139;SDS011;8175;49.326;12.690;2023-07-20T17:33:40;1.33;;;1.10;;
16139;SDS011;8175;49.326;12.690;2023-07-20T17:36:06;1.50;;;1.15;;
16139;SDS011;8175;49.326;12.690;2023-07-20T17:38:34;2.30;;;1.45;;
16139;SDS011;8175;49.326;12.690;2023-07-20T17:40:59;1.75;;;1.50;;
16139;SDS011;8175;49.326;12.690;2023-07-20T17:43:25;2.08;;;1.42;;
16139;SDS011;8175;49.326;12.690;2023-07-20T17:45:51;1.35;;;1.15;;
16139;SDS011;8175;49.326;12.690;2023-07-20T17:48:17;1.23;;;1.02;;
16139;SDS011;8175;49.326;12.690;2023-07-20T17:50:44;1.30;;;1.20;;
16139;SDS011;8175;49.326;12.690;2023-07-20T17:53:10;1.20;;;1.10;;
16139;SDS011;8175;49.326;12.690;2023-07-20T17:55:36;1.02;;;1.00;;
16139;SDS011;8175;49.326;12.690;2023-07-20T17:58:02;1.17;;;1.08;;
16139;SDS011;8175;49.326;12.690;2023-07-20T18:00:28;1.73;;;1.10;;
16139;SDS011;8175;49.326;12.690;2023-07-20T18:02:55;3.80;;;1.38;;
16139;SDS011;8175;49.326;12.690;2023-07-20T18:05:21;1.50;;;1.40;;
16139;SDS011;8175;49.326;12.690;2023-07-20T18:07:47;1.40;;;1.30;;
16139;SDS011;8175;49.326;12.690;2023-07-20T18:10:12;2.00;;;1.38;;
16139;SDS011;8175;49.326;12.690;2023-07-20T18:12:39;1.05;;;0.95;;
16139;SDS011;8175;49.326;12.690;2023-07-20T18:15:05;1.23;;;1.13;;
16139;SDS011;8175;49.326;12.690;2023-07-20T18:17:31;1.55;;;1.38;;
16139;SDS011;8175;49.326;12.690;2023-07-20T18:19:57;2.50;;;1.20;;
16139;SDS011;8175;49.326;12.690;2023-07-20T18:22:23;1.63;;;1.35;;
16139;SDS011;8175;49.326;12.690;2023-07-20T18:24:49;1.80;;;1.47;;
16139;SDS011;8175;49.326;12.690;2023-07-20T18:27:16;1.33;;;1.23;;
16139;SDS011;8175;49.326;12.690;2023-07-20T18:29:42;2.23;;;1.37;;
16139;SDS011;8175;49.326;12.690;2023-07-20T18:32:11;0.87;;;0.83;;
16139;SDS011;8175;49.326;12.690;2023-07-20T18:34:36;1.60;;;1.37;;
16139;SDS011;8175;49.326;12.690;2023-07-20T18:37:02;1.53;;;1.30;;
16139;SDS011;8175;49.326;12.690;2023-07-20T18:39:29;1.27;;;1.17;;
16139;SDS011;8175;49.326;12.690;2023-07-20T18:41:55;1.40;;;1.30;;
16139;SDS011;8175;49.326;12.690;2023-07-20T18:44:25;3.63;;;1.30;;
16139;SDS011;8175;49.326;12.690;2023-07-20T18:46:51;1.37;;;1.03;;
16139;SDS011;8175;49.326;12.690;2023-07-20T18:49:17;1.30;;;1.13;;
16139;SDS011;8175;49.326;12.690;2023-07-20T18:51:42;1.37;;;1.10;;
16139;SDS011;8175;49.326;12.690;2023-07-20T18:54:08;1.23;;;1.13;;
16139;SDS011;8175;49.326;12.690;2023-07-20T18:56:34;0.97;;;0.93;;
16139;SDS011;8175;49.326;12.690;2023-07-20T18:58:59;1.30;;;1.20;;
16139;SDS011;8175;49.326;12.690;2023-07-20T19:01:25;1.23;;;1.13;;
16139;SDS011;8175;49.326;12.690;2023-07-20T19:03:52;1.47;;;1.20;;
16139;SDS011;8175;49.326;12.690;2023-07-20T19:06:19;1.27;;;1.00;;
16139;SDS011;8175;49.326;12.690;2023-07-20T19:08:44;2.37;;;1.50;;
16139;SDS011;8175;49.326;12.690;2023-07-20T19:11:10;1.63;;;1.30;;
16139;SDS011;8175;49.326;12.690;2023-07-20T19:13:36;2.03;;;1.37;;
16139;SDS011;8175;49.326;12.690;2023-07-20T19:16:02;3.97;;;1.23;;
16139;SDS011;8175;49.326;12.690;2023-07-20T19:18:31;3.40;;;1.23;;
16139;SDS011;8175;49.326;12.690;2023-07-20T19:20:58;1.73;;;1.30;;
16139;SDS011;8175;49.326;12.690;2023-07-20T19:23:25;1.70;;;1.60;;
16139;SDS011;8175;49.326;12.690;2023-07-20T19:25:51;1.70;;;1.27;;
16139;SDS011;8175;49.326;12.690;2023-07-20T19:28:18;2.93;;;1.37;;
16139;SDS011;8175;49.326;12.690;2023-07-20T19:30:45;2.03;;;1.60;;